Terminal Aerodrome Forecast
Issued by NWS

Home | Current Version | Previous Version | Text Only | Print | Product List | Glossary Off
Versions: 1 2 3 4 5 6 7 8 9 10 11 12 13 14 15 16 17 18 19

869
FTUS43 KICT 242329
TAFHUT
TAF
KHUT 242329Z 2500/2524 35018G25KT P6SM VCTS BKN040CB OVC100
     FM250600 34017G25KT P6SM OVC015
     FM252000 34012KT P6SM BKN025
     FM252300 35010KT P6SM SCT070=

USA.gov is the U.S. government's official web portal to all federal, state and local government web resources and services.